Time;durP1;ratioP1;P1;durP2;ratioP2;P2;SDS_P1;SDS_P2;PMS_P1;PMS_P2;Temp;Humidity;BMP_temperature;BMP_pressure;BME280_temperature;BME280_humidity;BME280_pressure;Samples;Min_cycle;Max_cycle;Signal;HPM_P1;HPM_P2
2022/05/07 00:01:38;;;;;;;10.48;4.40;;;;;;;17.73;42.61;101728.59;5062076;28;20928;-55
2022/05/07 00:04:05;;;;;;;7.53;4.45;;;;;;;17.55;42.80;101729.06;5064889;28;20416;-58
2022/05/07 00:06:32;;;;;;;7.00;4.32;;;;;;;17.62;42.72;101723.75;5066488;28;20457;-57
2022/05/07 00:09:01;;;;;;;8.20;4.28;;;;;;;17.36;43.36;101714.44;5066210;28;20861;-56
2022/05/07 00:11:28;;;;;;;7.93;4.32;;;;;;;17.57;43.02;101711.78;5063879;28;20411;-55
2022/05/07 00:13:55;;;;;;;7.97;4.60;;;;;;;17.48;42.77;101717.44;5065792;28;20800;-56
2022/05/07 00:20:05;;;;;;;6.65;4.30;;;;;;;17.27;43.18;101721.78;5122534;27;20802;-56
2022/05/07 00:22:32;;;;;;;8.13;4.50;;;;;;;17.02;43.49;101726.63;5080306;28;20495;-55
2022/05/07 00:24:59;;;;;;;12.40;6.53;;;;;;;17.03;43.58;101717.56;5085119;28;20453;-56
2022/05/07 00:27:26;;;;;;;10.63;6.30;;;;;;;17.19;43.18;101717.34;5085947;28;20446;-56
2022/05/07 00:29:53;;;;;;;9.30;5.70;;;;;;;17.14;43.24;101711.75;5085747;28;20515;-57
2022/05/07 00:32:20;;;;;;;8.70;5.53;;;;;;;17.23;43.10;101709.75;5084330;28;20414;-56
2022/05/07 00:34:47;;;;;;;14.25;5.40;;;;;;;17.34;42.96;101703.06;5085099;28;20428;-56
2022/05/07 00:37:15;;;;;;;7.53;4.70;;;;;;;17.34;42.72;101711.94;5087064;28;20566;-56
2022/05/07 00:39:42;;;;;;;9.00;4.72;;;;;;;17.28;42.77;101718.06;5086938;28;20507;-56
2022/05/07 00:42:09;;;;;;;10.55;5.20;;;;;;;17.22;42.76;101708.09;5085137;28;20420;-56
2022/05/07 00:44:36;;;;;;;8.02;4.13;;;;;;;17.19;42.64;101711.16;5085646;28;20422;-56
2022/05/07 00:47:16;;;;;;;8.70;4.63;;;;;;;17.17;42.79;101710.53;5084479;28;20465;-55
2022/05/07 00:49:44;;;;;;;7.75;4.25;;;;;;;17.13;42.61;101711.94;5066461;28;20411;-57
2022/05/07 00:52:10;;;;;;;7.55;4.10;;;;;;;17.02;43.04;101707.88;5081475;28;20414;-57
2022/05/07 00:54:39;;;;;;;5.55;4.00;;;;;;;17.02;42.88;101707.06;5086440;28;20905;-56
2022/05/07 00:57:06;;;;;;;7.60;4.10;;;;;;;16.64;43.22;101708.00;5084642;28;20783;-56
2022/05/07 01:01:11;;;;;;;6.82;3.80;;;;;;;16.81;42.96;101717.47;5113807;27;20392;-55
2022/05/07 01:03:39;;;;;;;5.95;3.83;;;;;;;16.73;43.08;101708.75;5106768;28;20404;-55
2022/05/07 01:06:06;;;;;;;6.40;4.00;;;;;;;16.86;42.79;101716.16;5106913;28;20408;-56
2022/05/07 01:08:34;;;;;;;5.80;3.72;;;;;;;16.79;42.98;101708.81;5107135;28;20440;-55
2022/05/07 01:11:01;;;;;;;6.00;3.78;;;;;;;16.75;43.26;101720.91;5104424;28;20800;-56
2022/05/07 01:13:29;;;;;;;6.78;3.97;;;;;;;16.71;43.05;101721.47;5107157;28;20436;-54
2022/05/07 01:15:57;;;;;;;8.45;4.00;;;;;;;16.74;43.10;101719.25;5092937;28;20515;-54
2022/05/07 01:18:26;;;;;;;6.80;3.97;;;;;;;16.62;43.38;101713.53;5100677;28;20440;-55
2022/05/07 01:20:55;;;;;;;7.38;4.30;;;;;;;16.66;43.21;101722.03;5103469;28;20461;-54
2022/05/07 01:23:24;;;;;;;7.68;4.30;;;;;;;16.61;43.44;101719.91;5103741;28;20416;-54
2022/05/07 01:25:51;;;;;;;5.65;4.00;;;;;;;16.59;43.42;101707.72;5106934;28;20512;-55
2022/05/07 01:28:18;;;;;;;8.55;4.28;;;;;;;16.50;43.54;101716.88;5102309;28;20450;-56
2022/05/07 01:30:47;;;;;;;6.70;4.18;;;;;;;16.53;43.78;101714.66;5096408;28;20418;-56
2022/05/07 01:33:14;;;;;;;6.80;4.37;;;;;;;16.49;43.69;101713.34;5105985;28;20490;-55
2022/05/07 01:35:41;;;;;;;6.97;4.43;;;;;;;16.39;44.28;101720.84;5104380;28;20607;-55
2022/05/07 01:38:08;;;;;;;9.13;5.00;;;;;;;16.40;44.12;101719.81;5106299;28;20451;-55
2022/05/07 01:40:36;;;;;;;8.30;4.77;;;;;;;16.40;44.03;101719.81;5104713;28;20511;-56
2022/05/07 01:43:03;;;;;;;7.55;4.72;;;;;;;16.36;44.21;101722.00;5103544;28;20404;-54
2022/05/07 01:45:30;;;;;;;8.40;5.38;;;;;;;16.36;43.92;101723.88;5101328;28;20520;-56
2022/05/07 01:48:11;;;;;;;11.88;5.03;;;;;;;16.30;43.98;101725.44;5106782;28;20432;-55
2022/05/07 01:50:39;;;;;;;9.13;5.45;;;;;;;16.27;43.98;101719.63;5095694;28;20495;-57
2022/05/07 01:53:08;;;;;;;8.48;5.70;;;;;;;16.22;43.74;101720.16;5106019;28;20484;-56
2022/05/07 01:55:37;;;;;;;7.80;6.40;;;;;;;16.20;44.22;101714.16;5088114;28;20418;-55
2022/05/07 01:58:05;;;;;;;9.93;6.57;;;;;;;16.18;43.72;101716.19;5084935;28;20407;-57
2022/05/07 02:00:33;;;;;;;7.25;5.13;;;;;;;16.15;43.90;101717.41;5096232;28;20725;-54
2022/05/07 02:03:01;;;;;;;7.47;4.80;;;;;;;16.08;43.84;101716.47;5065262;28;20415;-54
2022/05/07 02:05:29;;;;;;;5.22;4.50;;;;;;;16.03;43.91;101705.47;5064467;28;20443;-55
2022/05/07 02:07:57;;;;;;;9.65;4.90;;;;;;;16.07;43.82;101709.44;5076758;28;20440;-55
2022/05/07 02:10:25;;;;;;;6.05;4.57;;;;;;;16.04;44.12;101705.31;5104366;28;20493;-55
2022/05/07 02:12:53;;;;;;;7.00;4.70;;;;;;;15.99;43.98;101702.34;5072128;28;21545;-56
2022/05/07 02:15:48;;;;;;;5.22;4.28;;;;;;;15.93;44.28;101703.03;5078670;27;20458;-55
2022/05/07 02:18:15;;;;;;;6.60;4.30;;;;;;;15.93;44.14;101708.38;5069110;28;20412;-57
2022/05/07 02:20:42;;;;;;;6.57;4.45;;;;;;;15.89;44.37;101712.44;5071955;28;20507;-57
2022/05/07 02:23:50;;;;;;;8.63;4.50;;;;;;;15.86;44.20;101702.97;5093593;27;20402;-55
2022/05/07 02:26:17;;;;;;;8.27;4.63;;;;;;;15.85;43.90;101705.81;5101098;28;20420;-56
2022/05/07 02:28:45;;;;;;;8.20;4.60;;;;;;;15.85;44.25;101698.59;5105438;28;20455;-54
2022/05/07 02:31:12;;;;;;;7.00;4.20;;;;;;;15.84;44.07;101702.28;5105104;28;20423;-57
2022/05/07 02:33:39;;;;;;;7.95;4.68;;;;;;;15.83;44.32;101697.13;5107032;28;20444;-56
2022/05/07 02:36:06;;;;;;;9.10;4.43;;;;;;;15.83;44.09;101697.13;5105936;28;20424;-55
2022/05/07 02:38:33;;;;;;;6.88;4.15;;;;;;;15.80;44.05;101700.16;5105309;28;20919;-56
2022/05/07 02:43:46;;;;;;;7.00;4.00;;;;;;;15.71;43.95;101703.88;5105345;28;20428;-55
2022/05/07 02:46:13;;;;;;;7.95;4.25;;;;;;;15.69;43.75;101709.41;5102052;28;20463;-54
2022/05/07 02:48:44;;;;;;;7.30;4.20;;;;;;;15.63;43.80;101712.81;5104672;28;20408;-57
2022/05/07 02:51:11;;;;;;;7.30;4.00;;;;;;;15.62;43.93;101706.63;5106798;28;20441;-55
2022/05/07 02:53:38;;;;;;;8.70;4.20;;;;;;;15.59;44.18;101714.16;5106936;28;20420;-56
2022/05/07 02:56:07;;;;;;;6.82;4.00;;;;;;;15.56;43.84;101715.34;5103053;28;20954;-58
2022/05/07 02:58:34;;;;;;;7.40;4.10;;;;;;;15.55;43.84;101718.22;5105296;28;20415;-56
2022/05/07 03:01:02;;;;;;;6.40;4.22;;;;;;;15.52;44.04;101722.06;5102025;28;20424;-57
2022/05/07 03:03:29;;;;;;;6.90;4.13;;;;;;;15.45;43.75;101719.28;5105273;28;20435;-55
2022/05/07 03:05:58;;;;;;;6.78;4.10;;;;;;;15.43;44.01;101720.44;5103972;28;20420;-57
2022/05/07 03:08:25;;;;;;;6.78;4.38;;;;;;;15.37;44.13;101719.31;5105802;28;20408;-56
2022/05/07 03:10:52;;;;;;;7.82;4.10;;;;;;;15.33;44.21;101720.69;5104983;28;20922;-55
2022/05/07 03:13:20;;;;;;;7.13;4.00;;;;;;;15.26;43.88;101727.75;5106573;28;20411;-52
2022/05/07 03:15:47;;;;;;;7.80;3.92;;;;;;;15.25;43.95;101731.41;5103718;28;20424;-56
2022/05/07 03:18:14;;;;;;;6.70;4.03;;;;;;;15.20;44.00;101734.63;5105890;28;20419;-56
2022/05/07 03:20:41;;;;;;;6.35;4.15;;;;;;;15.23;44.13;101728.09;5103905;28;20466;-56
2022/05/07 03:23:08;;;;;;;6.70;4.20;;;;;;;15.18;44.24;101739.31;5103907;28;20969;-55
2022/05/07 03:25:35;;;;;;;6.88;4.13;;;;;;;15.18;43.97;101738.47;5102493;28;20523;-54
2022/05/07 03:28:02;;;;;;;7.32;4.20;;;;;;;15.19;43.94;101750.81;5103984;28;20408;-55
2022/05/07 03:30:31;;;;;;;7.75;4.13;;;;;;;15.20;44.04;101741.81;5100991;28;20939;-56
2022/05/07 03:32:58;;;;;;;7.35;4.50;;;;;;;15.14;44.29;101750.50;5103754;28;20420;-56
2022/05/07 03:35:25;;;;;;;11.80;4.70;;;;;;;15.13;44.36;101748.88;5089461;28;20961;-56
2022/05/07 03:37:52;;;;;;;6.75;4.38;;;;;;;15.09;44.56;101754.53;5090194;28;20447;-55
2022/05/07 03:40:19;;;;;;;8.65;4.20;;;;;;;15.12;44.35;101755.19;5088975;28;20413;-58
2022/05/07 03:42:46;;;;;;;8.88;4.75;;;;;;;15.13;44.14;101762.22;5088755;28;21002;-56
2022/05/07 03:45:13;;;;;;;8.73;4.70;;;;;;;15.12;44.20;101758.69;5087177;28;20795;-56
2022/05/07 03:47:41;;;;;;;7.43;4.30;;;;;;;15.13;44.48;101765.72;5089218;28;20975;-58
2022/05/07 03:50:10;;;;;;;11.68;4.80;;;;;;;15.11;44.48;101762.38;5087542;28;20468;-56
2022/05/07 03:55:21;;;;;;;9.15;4.72;;;;;;;15.13;44.36;101763.03;5090568;28;20412;-56
2022/05/07 03:57:48;;;;;;;8.35;4.60;;;;;;;15.12;44.69;101769.38;5085719;28;20950;-57
2022/05/07 04:00:15;;;;;;;8.73;4.20;;;;;;;15.10;44.70;101769.53;5084801;28;20965;-57
2022/05/07 04:02:44;;;;;;;7.60;4.28;;;;;;;15.10;44.20;101779.41;5089266;28;20464;-58
2022/05/07 04:05:11;;;;;;;6.43;4.38;;;;;;;15.04;44.51;101783.59;5089218;28;20470;-58
2022/05/07 04:07:38;;;;;;;8.75;4.50;;;;;;;15.03;44.53;101776.59;5089835;28;20504;-56
2022/05/07 04:10:06;;;;;;;6.82;4.20;;;;;;;15.07;44.08;101780.59;5089790;28;20428;-57
2022/05/07 04:12:33;;;;;;;10.57;4.72;;;;;;;15.07;44.30;101782.41;5087480;28;20881;-56
2022/05/07 04:15:01;;;;;;;8.82;4.13;;;;;;;15.15;43.92;101790.41;5089793;28;20497;-56
2022/05/07 04:17:28;;;;;;;6.78;4.13;;;;;;;15.22;43.83;101790.53;5089109;28;20421;-56
2022/05/07 04:19:56;;;;;;;9.95;4.30;;;;;;;15.26;43.83;101786.50;5089033;28;20522;-57
2022/05/07 04:22:23;;;;;;;9.95;4.45;;;;;;;15.33;43.87;101795.50;5087260;28;20465;-57
2022/05/07 04:24:50;;;;;;;8.07;4.20;;;;;;;15.43;43.68;101803.28;5087861;28;20456;-57
2022/05/07 04:27:17;;;;;;;8.73;4.38;;;;;;;15.57;43.27;101802.53;5084567;28;20428;-59
2022/05/07 04:29:44;;;;;;;8.00;4.45;;;;;;;15.95;42.64;101810.66;5085572;28;20796;-57
2022/05/07 04:32:12;;;;;;;8.00;4.25;;;;;;;16.41;41.78;101801.75;5087690;28;21075;-56
2022/05/07 04:34:39;;;;;;;10.65;4.95;;;;;;;16.91;41.07;101810.16;5090697;28;20421;-56
2022/05/07 04:37:07;;;;;;;12.10;4.88;;;;;;;17.36;40.10;101808.25;5088953;28;20417;-57
2022/05/07 04:39:34;;;;;;;12.60;5.05;;;;;;;17.91;38.95;101805.97;5088078;28;20495;-59
2022/05/07 04:42:01;;;;;;;9.15;4.60;;;;;;;18.37;38.09;101805.53;5089414;28;20425;-57
2022/05/07 04:44:28;;;;;;;8.65;4.32;;;;;;;18.73;37.10;101810.75;5088530;28;20417;-56
2022/05/07 04:46:55;;;;;;;9.25;4.93;;;;;;;18.97;36.64;101811.31;5085852;28;20428;-57
2022/05/07 04:49:22;;;;;;;9.05;4.95;;;;;;;19.29;36.02;101809.81;5089516;28;21157;-57
2022/05/07 04:51:50;;;;;;;8.40;4.93;;;;;;;19.36;35.91;101809.00;5088379;28;20421;-56
2022/05/07 04:54:20;;;;;;;10.52;4.80;;;;;;;19.53;35.61;101802.22;5086796;28;20424;-56
2022/05/07 04:56:47;;;;;;;9.77;5.50;;;;;;;19.80;35.07;101805.00;5088086;28;20913;-58
2022/05/07 04:59:14;;;;;;;11.47;5.47;;;;;;;20.16;34.44;101801.09;5087281;28;20423;-61
2022/05/07 05:01:41;;;;;;;8.73;5.15;;;;;;;20.38;34.04;101807.09;5086502;28;20456;-56
2022/05/07 05:04:08;;;;;;;11.02;4.90;;;;;;;20.73;33.52;101805.00;5086171;28;20456;-55
2022/05/07 05:06:35;;;;;;;8.45;5.03;;;;;;;21.05;33.17;101801.56;5088912;28;20423;-55
2022/05/07 05:09:03;;;;;;;8.38;4.88;;;;;;;21.40;32.49;101810.16;5088575;28;20419;-58
2022/05/07 05:11:31;;;;;;;9.15;4.80;;;;;;;21.75;31.87;101807.06;5084573;28;20507;-58
2022/05/07 05:13:58;;;;;;;9.85;5.03;;;;;;;21.64;32.07;101810.47;5085868;28;20428;-59
2022/05/07 05:16:26;;;;;;;7.35;5.13;;;;;;;21.80;31.97;101809.13;5081638;28;20465;-55
2022/05/07 05:18:53;;;;;;;9.27;5.47;;;;;;;22.44;30.88;101813.41;5086884;28;20421;-57
2022/05/07 05:21:20;;;;;;;8.85;5.30;;;;;;;22.99;29.74;101801.78;5084922;28;20425;-59
2022/05/07 05:23:47;;;;;;;9.52;5.38;;;;;;;22.78;30.20;101802.22;5083874;28;20429;-59
2022/05/07 05:26:14;;;;;;;8.68;5.35;;;;;;;23.15;29.72;101803.06;5083832;28;20427;-56
2022/05/07 05:28:43;;;;;;;9.07;4.90;;;;;;;23.49;29.26;101806.16;5085682;28;20926;-53
2022/05/07 05:31:10;;;;;;;8.25;5.40;;;;;;;22.54;30.14;101812.88;5085790;28;20420;-59
2022/05/07 05:33:37;;;;;;;7.57;4.80;;;;;;;23.25;29.26;101806.06;5084315;28;20425;-58
2022/05/07 05:36:04;;;;;;;9.35;4.97;;;;;;;22.75;30.21;101821.63;5088514;28;20448;-59
2022/05/07 05:38:31;;;;;;;8.98;5.38;;;;;;;23.42;29.42;101813.56;5086867;28;20440;-57
2022/05/07 05:40:58;;;;;;;8.98;4.97;;;;;;;23.73;28.88;101807.06;5083622;28;20449;-56
2022/05/07 05:43:25;;;;;;;7.13;5.10;;;;;;;23.76;28.67;101817.44;5086663;28;20815;-57
2022/05/07 05:45:54;;;;;;;7.47;4.82;;;;;;;23.81;28.16;101817.59;5080525;28;20421;-57
2022/05/07 05:48:21;;;;;;;6.23;4.80;;;;;;;23.17;28.87;101816.38;5079333;28;20413;-57
2022/05/07 05:50:48;;;;;;;8.30;5.00;;;;;;;23.14;29.18;101819.53;5086628;28;20421;-57
2022/05/07 05:53:15;;;;;;;6.13;4.70;;;;;;;23.56;28.44;101814.22;5084844;28;20409;-59
2022/05/07 05:55:42;;;;;;;7.35;4.88;;;;;;;24.28;27.64;101819.56;5087187;28;20460;-59
2022/05/07 05:58:09;;;;;;;8.32;4.72;;;;;;;24.92;27.15;101819.66;5083639;28;20432;-58
2022/05/07 06:00:36;;;;;;;8.20;5.03;;;;;;;24.69;27.18;101817.00;5084905;28;20960;-59
2022/05/07 06:03:04;;;;;;;6.75;4.97;;;;;;;24.96;26.71;101818.13;5085027;28;20438;-59
2022/05/07 06:05:32;;;;;;;6.82;4.72;;;;;;;25.16;26.38;101812.28;5083410;28;20433;-57
2022/05/07 06:07:59;;;;;;;6.28;5.07;;;;;;;25.31;26.23;101817.19;5085160;28;20900;-57
2022/05/07 06:10:26;;;;;;;8.85;5.40;;;;;;;24.52;27.22;101827.69;5084029;28;20523;-57
2022/05/07 06:12:53;;;;;;;7.88;5.20;;;;;;;24.18;27.32;101838.28;5087115;28;20449;-57
2022/05/07 06:15:20;;;;;;;7.97;5.30;;;;;;;24.01;27.62;101825.41;5083744;28;20439;-57
2022/05/07 06:17:47;;;;;;;9.90;5.80;;;;;;;24.24;27.31;101821.91;5086778;28;20415;-60
2022/05/07 06:20:16;;;;;;;9.00;5.63;;;;;;;25.07;26.59;101821.06;5085074;28;20409;-57
2022/05/07 06:22:43;;;;;;;10.48;6.43;;;;;;;24.70;27.08;101819.44;5082144;28;20421;-58
2022/05/07 06:27:55;;;;;;;10.73;5.90;;;;;;;24.77;26.80;101822.03;5098766;28;20417;-58
2022/05/07 06:30:22;;;;;;;6.55;5.25;;;;;;;24.29;27.62;101833.91;5083337;28;21133;-59
2022/05/07 06:32:49;;;;;;;8.07;5.20;;;;;;;25.66;25.70;101823.53;5084192;28;20413;-56
2022/05/07 06:35:17;;;;;;;7.63;4.87;;;;;;;25.43;26.05;101825.31;5084537;28;20459;-57
2022/05/07 06:37:48;;;;;;;7.97;5.13;;;;;;;25.61;26.01;101827.00;5084551;28;20452;-58
2022/05/07 06:40:15;;;;;;;9.02;4.93;;;;;;;25.41;26.18;101821.19;5085971;28;20419;-59
2022/05/07 06:42:44;;;;;;;9.07;5.35;;;;;;;25.24;26.26;101826.53;5087272;28;20449;-58
2022/05/07 06:45:12;;;;;;;8.80;4.82;;;;;;;26.13;25.22;101820.59;5084317;28;20413;-57
2022/05/07 06:47:39;;;;;;;8.98;4.90;;;;;;;26.06;25.17;101817.22;5083505;28;20425;-57
2022/05/07 06:50:07;;;;;;;6.45;4.78;;;;;;;25.99;25.43;101813.84;5084166;28;20439;-54
2022/05/07 06:52:44;;;;;;;9.63;5.20;;;;;;;25.21;26.48;101816.16;5082077;28;20464;-55
2022/05/07 06:55:13;;;;;;;7.90;5.13;;;;;;;25.13;26.70;101809.22;5065100;28;20406;-59
2022/05/07 06:57:40;;;;;;;11.90;5.20;;;;;;;25.30;26.77;101812.00;5045780;28;20433;-59
2022/05/07 07:00:09;;;;;;;6.77;4.70;;;;;;;24.67;27.32;101811.81;5059903;28;20458;-59
2022/05/07 07:02:36;;;;;;;8.07;5.20;;;;;;;24.64;27.69;101809.56;5066801;28;20884;-56
2022/05/07 07:05:04;;;;;;;8.43;4.70;;;;;;;23.73;28.50;101809.75;5070689;28;20556;-56
2022/05/07 07:07:31;;;;;;;8.30;4.80;;;;;;;23.84;28.73;101808.19;5068875;28;20568;-56
2022/05/07 07:10:00;;;;;;;9.73;4.80;;;;;;;23.28;29.69;101807.50;5068301;28;20429;-55
2022/05/07 07:12:28;;;;;;;7.70;4.88;;;;;;;23.03;29.80;101811.13;5071339;28;20414;-56
2022/05/07 07:14:55;;;;;;;7.47;4.90;;;;;;;22.86;29.72;101816.28;5069476;28;20505;-55
2022/05/07 07:17:27;;;;;;;7.47;4.75;;;;;;;22.89;29.64;101813.13;5068023;28;20500;-55
2022/05/07 07:19:54;;;;;;;6.97;4.45;;;;;;;22.15;30.36;101820.28;5070656;28;20422;-56
2022/05/07 07:22:21;;;;;;;7.15;4.75;;;;;;;22.05;30.67;101812.66;5071673;28;20450;-55
2022/05/07 07:24:48;;;;;;;7.77;4.60;;;;;;;22.05;30.97;101817.25;5069143;28;20437;-57
2022/05/07 07:27:16;;;;;;;7.00;4.25;;;;;;;21.71;31.23;101811.25;5068500;28;20529;-58
2022/05/07 07:29:47;;;;;;;7.35;4.43;;;;;;;21.78;31.80;101809.31;5067889;28;20451;-59
2022/05/07 07:32:15;;;;;;;7.47;4.07;;;;;;;21.61;31.93;101806.34;5063397;28;20420;-57
2022/05/07 07:34:42;;;;;;;7.57;4.20;;;;;;;21.67;31.60;101816.25;5064361;28;20443;-58
2022/05/07 07:37:09;;;;;;;5.38;4.35;;;;;;;21.54;31.96;101816.34;5057439;28;20482;-55
2022/05/07 07:39:36;;;;;;;5.68;4.03;;;;;;;21.18;32.41;101801.53;5067660;28;20431;-55
2022/05/07 07:42:03;;;;;;;7.38;4.20;;;;;;;21.21;32.58;101801.09;5057023;28;20458;-54
2022/05/07 07:44:32;;;;;;;8.20;4.40;;;;;;;21.12;32.72;101803.22;5057717;28;20433;-58
2022/05/07 07:49:39;;;;;;;7.10;4.18;;;;;;;20.74;33.79;101806.66;5026262;28;20433;-57
2022/05/07 07:52:07;;;;;;;8.20;4.18;;;;;;;21.04;33.27;101806.16;5087888;28;20506;-57
2022/05/07 07:54:34;;;;;;;6.97;4.28;;;;;;;20.93;33.04;101809.50;5068282;28;20461;-56
2022/05/07 07:57:02;;;;;;;8.00;3.97;;;;;;;20.65;33.92;101817.88;5068589;28;20462;-57
2022/05/07 07:59:30;;;;;;;4.88;3.67;;;;;;;20.41;33.82;101809.38;5071426;28;20423;-55
2022/05/07 08:01:58;;;;;;;5.70;3.58;;;;;;;20.21;34.41;101812.91;5069989;28;20430;-57
2022/05/07 08:04:26;;;;;;;5.90;3.78;;;;;;;20.40;34.38;101813.09;5080540;28;20429;-55
2022/05/07 08:12:18;;;;;;;6.32;3.97;;;;;;;20.64;33.85;101808.16;5050426;28;20416;-56
2022/05/07 08:14:45;;;;;;;6.80;3.58;;;;;;;20.41;34.16;101804.00;5060778;28;20419;-58
2022/05/07 08:17:15;;;;;;;5.53;3.60;;;;;;;20.15;34.69;101805.66;5053460;28;20805;-56
2022/05/07 08:19:43;;;;;;;6.10;3.22;;;;;;;20.15;35.22;101807.50;5063094;28;20423;-56
2022/05/07 08:24:25;;;;;;;6.38;3.25;;;;;;;20.55;34.33;101802.94;5061514;27;20500;-52
2022/05/07 08:26:52;;;;;;;5.57;3.10;;;;;;;20.54;34.40;101800.44;5090199;28;20453;-52
2022/05/07 08:29:20;;;;;;;6.20;2.90;;;;;;;20.40;34.37;101802.31;5105372;28;20497;-52
2022/05/07 08:31:48;;;;;;;5.37;2.83;;;;;;;20.33;34.41;101799.66;5101994;28;20416;-52
2022/05/07 08:34:14;;;;;;;5.40;3.22;;;;;;;20.14;34.76;101808.56;5102534;28;20424;-52
2022/05/07 08:36:41;;;;;;;5.33;3.20;;;;;;;19.99;34.62;101816.84;5101788;28;20440;-53
2022/05/07 08:39:08;;;;;;;6.30;3.10;;;;;;;20.29;34.69;101811.03;5099989;28;20970;-49
2022/05/07 08:41:37;;;;;;;4.97;3.10;;;;;;;20.27;33.78;101805.84;5101272;28;20432;-51
2022/05/07 08:44:04;;;;;;;6.38;3.08;;;;;;;20.27;34.06;101805.03;5102200;28;20925;-50
2022/05/07 08:46:32;;;;;;;5.90;2.92;;;;;;;20.21;34.22;101801.31;5092953;28;20428;-50
2022/05/07 08:48:59;;;;;;;5.40;3.00;;;;;;;20.41;33.74;101807.50;5095116;28;20424;-50
2022/05/07 08:51:27;;;;;;;6.20;3.00;;;;;;;20.78;33.00;101809.78;5094750;28;20444;-52
2022/05/07 08:53:54;;;;;;;6.40;3.10;;;;;;;21.08;32.86;101803.84;5099684;28;20482;-52
2022/05/07 08:56:22;;;;;;;6.20;3.15;;;;;;;21.30;32.06;101804.38;5101709;28;20905;-52
2022/05/07 08:58:52;;;;;;;6.63;3.20;;;;;;;21.34;32.08;101802.94;5102011;28;20840;-51
2022/05/07 09:01:19;;;;;;;4.88;2.95;;;;;;;21.11;31.13;101803.44;5099885;28;20934;-52
2022/05/07 09:03:48;;;;;;;5.85;3.53;;;;;;;21.31;30.82;101806.03;5093173;28;20460;-49
2022/05/07 09:06:20;;;;;;;6.22;2.83;;;;;;;21.34;31.17;101806.44;5100735;28;20435;-50
2022/05/07 09:08:48;;;;;;;7.80;3.05;;;;;;;21.60;30.70;101801.97;5083951;28;20430;-53
2022/05/07 09:11:17;;;;;;;6.75;2.92;;;;;;;21.39;30.32;101821.97;5097005;28;20444;-56
2022/05/07 09:13:46;;;;;;;7.57;2.90;;;;;;;21.45;29.38;101810.38;5096843;28;20524;-54
2022/05/07 09:16:15;;;;;;;7.70;3.25;;;;;;;21.55;28.76;101796.38;5090682;28;20561;-54
2022/05/07 09:18:49;;;;;;;5.07;3.00;;;;;;;21.62;29.94;101790.97;5100963;28;20416;-50
2022/05/07 09:21:23;;;;;;;7.18;3.20;;;;;;;22.03;29.16;101786.94;5090659;28;20499;-58
2022/05/07 09:24:05;;;;;;;5.43;3.05;;;;;;;21.70;29.39;101791.53;5093803;28;20935;-51
2022/05/07 09:26:33;;;;;;;5.78;3.10;;;;;;;21.98;29.05;101792.16;5095411;28;20424;-55
2022/05/07 09:29:03;;;;;;;6.95;3.50;;;;;;;21.75;28.70;101786.31;5092371;28;20530;-52
2022/05/07 09:31:33;;;;;;;6.50;3.10;;;;;;;21.44;28.38;101787.09;5096315;28;20425;-51
2022/05/07 09:36:41;;;;;;;6.97;3.10;;;;;;;21.90;28.33;101771.66;5083320;28;20429;-51
2022/05/07 09:39:11;;;;;;;6.88;3.10;;;;;;;22.10;28.64;101758.00;5082926;28;20425;-51
2022/05/07 09:41:41;;;;;;;6.05;3.22;;;;;;;22.08;28.56;101763.63;5087434;28;20452;-51
2022/05/07 09:44:09;;;;;;;5.95;3.20;;;;;;;21.95;28.06;101763.75;5086017;28;20484;-56
2022/05/07 09:46:38;;;;;;;4.50;2.92;;;;;;;22.01;27.85;101752.06;5083043;28;20460;-52
2022/05/07 09:49:06;;;;;;;8.98;3.08;;;;;;;22.08;27.72;101752.81;5083410;28;20424;-55
2022/05/07 09:51:33;;;;;;;5.50;3.00;;;;;;;22.00;26.53;101746.88;5085382;28;20421;-56
2022/05/07 09:59:32;;;;;;;5.75;3.30;;;;;;;22.09;26.10;101746.38;5090651;28;20998;-55
2022/05/07 10:02:12;;;;;;;6.93;2.97;;;;;;;22.25;26.39;101731.47;5086425;28;20508;-52
2022/05/07 10:04:54;;;;;;;5.90;3.03;;;;;;;22.11;25.50;101741.59;5087219;28;20787;-53
2022/05/07 10:07:37;;;;;;;7.40;2.97;;;;;;;22.21;26.37;101729.44;5088261;28;20490;-53
2022/05/07 10:10:22;;;;;;;5.75;2.92;;;;;;;22.25;26.66;101717.94;5079783;28;20930;-57
2022/05/07 10:12:50;;;;;;;6.18;3.13;;;;;;;22.30;25.70;101722.72;5079967;28;20422;-53
2022/05/07 10:15:23;;;;;;;5.72;3.10;;;;;;;22.21;25.43;101722.16;5081593;28;20918;-54
2022/05/07 10:18:01;;;;;;;6.95;3.05;;;;;;;22.28;24.64;101724.84;5081053;28;20514;-52
2022/05/07 10:20:39;;;;;;;13.25;3.45;;;;;;;22.04;24.82;101734.56;5057215;28;20427;-52
2022/05/07 10:23:08;;;;;;;7.63;3.00;;;;;;;22.06;25.00;101722.50;5083257;28;20926;-51
2022/05/07 10:25:35;;;;;;;5.53;3.10;;;;;;;22.15;25.26;101721.19;5086199;28;20516;-53
2022/05/07 10:28:10;;;;;;;4.25;3.03;;;;;;;22.59;25.13;101723.03;5086339;28;20445;-52
2022/05/07 10:30:51;;;;;;;9.03;3.20;;;;;;;22.59;24.33;101696.84;5082668;28;20425;-52
2022/05/07 10:33:20;;;;;;;8.48;3.38;;;;;;;22.35;23.78;101712.09;5082685;28;21118;-55
2022/05/07 10:35:49;;;;;;;6.95;3.17;;;;;;;22.43;24.04;101698.25;5079634;28;20467;-56
2022/05/07 10:38:27;;;;;;;10.70;3.13;;;;;;;22.17;24.48;101706.63;5080754;28;20516;-57
2022/05/07 10:40:55;;;;;;;8.57;3.28;;;;;;;22.35;24.19;101697.75;5073479;28;20423;-56
2022/05/07 10:43:29;;;;;;;6.03;3.63;;;;;;;22.53;23.60;101690.47;5081507;28;20421;-54
2022/05/07 10:45:57;;;;;;;7.50;4.47;;;;;;;22.55;23.60;101708.34;5079746;28;20442;-60
2022/05/07 10:48:25;;;;;;;6.65;4.03;;;;;;;22.56;23.73;101696.47;5074707;28;20907;-55
2022/05/07 10:50:55;;;;;;;7.88;4.63;;;;;;;22.56;23.22;101681.06;5074264;28;20441;-56
2022/05/07 10:53:22;;;;;;;6.82;3.17;;;;;;;22.61;23.83;101686.63;5083080;28;20506;-51
2022/05/07 10:55:51;;;;;;;8.00;3.47;;;;;;;22.36;23.63;101696.69;5078052;28;20452;-55
2022/05/07 10:58:28;;;;;;;6.35;4.20;;;;;;;22.48;23.84;101676.81;5085056;28;20425;-53
2022/05/07 11:00:59;;;;;;;8.50;4.00;;;;;;;22.32;23.97;101672.81;5078384;28;20803;-54
2022/05/07 11:03:28;;;;;;;6.47;3.33;;;;;;;22.45;23.55;101681.84;5077267;28;20464;-52
2022/05/07 11:06:02;;;;;;;8.05;3.78;;;;;;;22.60;24.05;101668.78;5074040;28;20432;-55
2022/05/07 11:08:30;;;;;;;6.43;3.70;;;;;;;22.41;23.62;101665.25;5078598;28;20415;-54
2022/05/07 11:11:09;;;;;;;6.40;3.50;;;;;;;22.71;22.65;101668.00;5082977;28;20517;-54
2022/05/07 11:13:46;;;;;;;6.50;3.20;;;;;;;22.69;23.28;101658.47;5082388;28;20479;-54
2022/05/07 11:16:13;;;;;;;7.05;3.58;;;;;;;22.68;23.73;101654.13;5084985;28;20904;-55
2022/05/07 11:18:45;;;;;;;6.25;3.20;;;;;;;22.87;23.59;101654.91;5083739;28;20845;-53
2022/05/07 11:21:13;;;;;;;5.53;3.50;;;;;;;22.74;24.21;101668.59;5086384;28;20585;-53
2022/05/07 11:23:43;;;;;;;6.47;3.20;;;;;;;22.56;24.14;101664.84;5085127;28;20471;-53
2022/05/07 11:26:11;;;;;;;6.55;3.70;;;;;;;;;;5079931;28;20475;-53
2022/05/07 11:28:39;;;;;;;6.60;3.40;;;;;;;22.67;24.41;101652.44;5085529;28;20471;-52
2022/05/07 11:31:06;;;;;;;5.57;3.80;;;;;;;22.69;24.00;101655.78;5082991;28;20481;-54
2022/05/07 11:33:33;;;;;;;5.68;3.20;;;;;;;22.67;24.10;101655.16;5086533;28;20461;-60
2022/05/07 11:36:03;;;;;;;4.38;3.30;;;;;;;22.90;24.05;101660.69;5085768;28;21069;-54
2022/05/07 11:38:30;;;;;;;7.10;3.65;;;;;;;22.60;24.02;101654.41;5078910;28;20411;-53
2022/05/07 11:40:57;;;;;;;7.90;3.33;;;;;;;22.43;24.39;101665.84;5082599;28;20457;-55
2022/05/07 11:46:08;;;;;;;7.40;3.50;;;;;;;22.56;24.25;101656.75;5081728;28;20420;-55
2022/05/07 11:48:35;;;;;;;10.85;3.13;;;;;;;22.66;24.24;101650.81;5079461;28;20424;-54
2022/05/07 11:51:04;;;;;;;6.28;2.88;;;;;;;22.68;24.32;101649.53;5077507;28;20407;-55
2022/05/07 11:53:35;;;;;;;6.88;3.30;;;;;;;22.55;23.42;101648.91;5083444;28;20441;-54
2022/05/07 11:56:07;;;;;;;4.88;3.20;;;;;;;22.55;23.46;101652.41;5082316;28;20460;-53
2022/05/07 11:58:40;;;;;;;5.30;2.95;;;;;;;22.74;23.42;101642.38;5081087;28;21705;-57
2022/05/07 12:01:18;;;;;;;5.40;3.30;;;;;;;22.77;23.35;101638.41;5081289;28;20945;-52
2022/05/07 12:03:46;;;;;;;5.17;3.07;;;;;;;22.85;23.84;101640.78;5079758;28;20421;-54
2022/05/07 12:06:24;;;;;;;8.48;3.30;;;;;;;22.46;23.12;101659.19;5076617;28;20484;-50